Time;durP1;ratioP1;P1;durP2;ratioP2;P2;SDS_P1;SDS_P2;PMS_P1;PMS_P2;Temp;Humidity;BMP_temperature;BMP_pressure;BME280_temperature;BME280_humidity;BME280_pressure;Samples;Min_cycle;Max_cycle;Signal;HPM_P1;HPM_P2
2023/03/13 00:01:46;;;;;;;;;;;5.60;81.90;;;-151.14;100.00;62537.16;5071771;28;19921;-85
2023/03/13 00:04:14;;;;;;;;;;;5.60;82.00;;;-151.14;100.00;62537.16;5071070;28;19921;-85
2023/03/13 00:06:43;;;;;;;;;;;5.60;81.70;;;-151.14;100.00;62537.16;5055068;28;19927;-85
2023/03/13 00:09:12;;;;;;;;;;;5.60;82.00;;;-151.14;100.00;62537.16;5054986;28;19927;-85
2023/03/13 00:11:40;;;;;;;;;;;5.60;81.70;;;-151.14;100.00;62537.16;5088454;28;19943;-85
2023/03/13 00:14:08;;;;;;;;;;;5.60;82.20;;;-151.14;100.00;62537.16;5054349;28;19921;-85
2023/03/13 00:16:36;;;;;;;;;;;5.60;82.00;;;-151.14;100.00;62537.16;5071445;28;20137;-85
2023/03/13 00:19:04;;;;;;;;;;;5.50;82.30;;;-151.14;100.00;62537.16;5071390;28;19925;-86
2023/03/13 00:21:32;;;;;;;;;;;5.50;81.90;;;18.10;100.00;62537.16;5071326;28;19921;-85
2023/03/13 00:24:02;;;;;;;;;;;5.50;82.10;;;-151.14;100.00;62537.16;5054212;28;19927;-85
2023/03/13 00:26:30;;;;;;;;;;;5.50;81.90;;;-151.14;100.00;62537.16;5081675;28;20119;-85
2023/03/13 00:28:58;;;;;;;;;;;5.50;82.00;;;-151.14;100.00;62537.16;5091920;28;19920;-85
2023/03/13 00:31:26;;;;;;;;;;;5.50;82.10;;;-151.14;100.00;62537.16;5074580;28;19926;-85
2023/03/13 00:33:55;;;;;;;;;;;5.50;82.30;;;-151.14;100.00;62537.16;5074019;28;20207;-85
2023/03/13 00:36:24;;;;;;;;;;;5.50;82.40;;;-151.14;100.00;62537.16;5074519;28;19927;-85
2023/03/13 00:38:52;;;;;;;;;;;5.50;82.00;;;-151.14;100.00;62537.16;5108267;28;20111;-85
2023/03/13 00:41:22;;;;;;;;;;;5.50;82.00;;;-151.14;100.00;62537.16;5090958;28;19920;-85
2023/03/13 00:43:50;;;;;;;;;;;5.50;82.10;;;-151.14;100.00;62537.16;5090567;28;19920;-85
2023/03/13 00:46:19;;;;;;;;;;;5.50;82.10;;;-151.14;100.00;62537.16;5092395;28;19965;-85
2023/03/13 00:48:47;;;;;;;;;;;5.50;82.20;;;-151.14;100.00;62537.16;5092264;28;20112;-85
2023/03/13 00:51:15;;;;;;;;;;;5.50;82.20;;;-151.14;100.00;62537.16;5091192;28;19920;-85
2023/03/13 00:53:43;;;;;;;;;;;5.40;82.00;;;-151.14;100.00;62537.16;5073653;28;19920;-85
2023/03/13 00:56:12;;;;;;;;;;;5.40;81.90;;;4.18;100.00;81702.84;5074204;28;19920;-85
2023/03/13 00:58:42;;;;;;;;;;;5.50;82.00;;;-151.14;100.00;62537.16;5074200;28;19920;-85
2023/03/13 01:01:11;;;;;;;;;;;5.50;82.20;;;-151.14;100.00;62537.16;5087886;28;19942;-86
2023/03/13 01:03:39;;;;;;;;;;;5.40;82.10;;;-151.14;100.00;62537.16;5087026;28;19927;-85
2023/03/13 01:06:08;;;;;;;;;;;5.40;81.80;;;-151.14;100.00;62537.16;5054053;28;19920;-85
2023/03/13 01:08:36;;;;;;;;;;;5.40;82.10;;;-151.14;100.00;62537.16;5071003;28;20360;-85
2023/03/13 01:11:05;;;;;;;;;;;5.40;81.90;;;-151.14;100.00;62537.16;5054090;28;19921;-84
2023/03/13 01:13:33;;;;;;;;;;;5.40;82.00;;;-151.14;100.00;62537.16;5053468;28;19920;-84
2023/03/13 01:16:07;;;;;;;;;;;5.40;82.00;;;4.14;100.00;65736.03;5053866;28;20120;-84
2023/03/13 01:18:36;;;;;;;;;;;5.40;81.70;;;4.14;100.00;62537.16;5053907;28;19927;-84
2023/03/13 01:21:04;;;;;;;;;;;5.40;81.90;;;-151.14;100.00;62537.16;5053830;28;19920;-84
2023/03/13 01:23:32;;;;;;;;;;;5.40;82.00;;;-151.14;100.00;62537.16;5053241;28;19920;-84
2023/03/13 01:26:00;;;;;;;;;;;5.40;82.10;;;4.16;100.00;62537.16;5070526;28;19920;-84
2023/03/13 01:28:28;;;;;;;;;;;5.40;81.90;;;-151.14;100.00;62537.16;5053819;28;19920;-84
2023/03/13 01:30:56;;;;;;;;;;;5.40;82.10;;;-151.14;100.00;62537.16;5053726;28;19920;-84
2023/03/13 01:33:25;;;;;;;;;;;5.40;81.80;;;-151.14;100.00;62537.16;5053222;28;20205;-84
2023/03/13 01:36:00;;;;;;;;;;;5.40;81.80;;;-151.14;100.00;62537.16;5053632;28;19921;-84
2023/03/13 01:38:28;;;;;;;;;;;5.40;82.00;;;-151.14;100.00;62537.16;5053494;28;19920;-84
2023/03/13 01:40:56;;;;;;;;;;;5.40;81.80;;;-151.14;100.00;62537.16;5069253;28;19920;-84
2023/03/13 01:43:26;;;;;;;;;;;5.40;81.80;;;-151.14;100.00;62537.16;5052918;28;19920;-84
2023/03/13 01:46:09;;;;;;;;;;;5.40;81.90;;;-151.14;100.00;62537.16;5053702;28;19920;-84
2023/03/13 01:48:58;;;;;;;;;;;5.40;81.80;;;-151.14;100.00;62537.16;5053634;28;19921;-84
2023/03/13 01:51:27;;;;;;;;;;;5.30;81.80;;;-151.14;100.00;62537.16;5070193;28;19920;-84
2023/03/13 01:53:59;;;;;;;;;;;5.40;82.00;;;-151.14;100.00;62537.16;5052926;28;19927;-84
2023/03/13 01:56:29;;;;;;;;;;;5.30;82.00;;;-151.14;100.00;62537.16;5053453;28;19927;-84
2023/03/13 01:58:57;;;;;;;;;;;5.40;82.00;;;-151.14;100.00;62537.16;5053429;28;19920;-84
2023/03/13 02:01:26;;;;;;;;;;;5.30;81.90;;;-151.14;100.00;62537.16;5069940;28;19954;-84
2023/03/13 02:03:54;;;;;;;;;;;5.30;81.90;;;-151.14;100.00;62537.16;5052686;28;20362;-84
2023/03/13 02:06:23;;;;;;;;;;;5.30;81.90;;;-151.14;100.00;62537.16;5070045;28;19921;-84
2023/03/13 02:08:52;;;;;;;;;;;5.30;81.90;;;-151.14;100.00;62537.16;5085958;28;19920;-84
2023/03/13 02:11:24;;;;;;;;;;;5.30;82.20;;;-151.14;100.00;62537.16;5089729;28;19920;-84
2023/03/13 02:13:52;;;;;;;;;;;5.30;82.40;;;-151.14;100.00;62537.16;5106598;28;19927;-84
2023/03/13 02:16:21;;;;;;;;;;;5.30;82.30;;;-151.14;100.00;62537.16;5089849;28;19927;-84
2023/03/13 02:18:50;;;;;;;;;;;5.30;82.10;;;-151.14;100.00;62537.16;5090015;28;20115;-84
2023/03/13 02:21:25;;;;;;;;;;;5.30;81.80;;;-151.14;100.00;62537.16;5072804;28;19920;-84
2023/03/13 02:23:55;;;;;;;;;;;5.30;82.20;;;-151.14;100.00;62537.16;5072350;28;19920;-84
2023/03/13 02:26:25;;;;;;;;;;;5.30;82.00;;;-151.14;100.00;62537.16;5089847;28;19943;-84
2023/03/13 02:29:36;;;;;;;;;;;5.30;82.00;;;7.49;100.00;62537.16;5072810;28;19920;-84
2023/03/13 02:36:11;;;;;;;;;;;5.30;82.20;;;-151.14;100.00;62537.16;5097550;28;19912;-84
2023/03/13 02:38:42;;;;;;;;;;;5.30;82.00;;;-151.14;100.00;62537.16;5089497;28;19920;-84
2023/03/13 02:41:10;;;;;;;;;;;5.30;82.10;;;-151.14;100.00;62537.16;5089563;28;19954;-84
2023/03/13 02:43:41;;;;;;;;;;;5.30;82.20;;;-151.14;100.00;62537.16;5089070;28;19920;-84
2023/03/13 02:46:11;;;;;;;;;;;5.30;82.40;;;-151.14;100.00;62537.16;5072891;28;19926;-84
2023/03/13 02:48:43;;;;;;;;;;;5.20;82.30;;;3.96;100.00;62537.16;5072837;28;19926;-84
2023/03/13 02:51:15;;;;;;;;;;;5.20;82.20;;;-151.14;100.00;62537.16;5090960;28;19927;-84
2023/03/13 02:57:34;;;;;;;;;;;5.20;82.00;;;-151.14;100.00;62537.16;5093923;28;19912;-84
2023/03/13 03:00:40;;;;;;;;;;;5.20;82.10;;;-151.14;100.00;62537.16;5092918;28;19934;-84
2023/03/13 03:03:08;;;;;;;;;;;5.20;83.20;;;-151.14;100.00;62537.16;5092406;28;19920;-84
2023/03/13 03:06:05;;;;;;;;;;;5.20;82.20;;;-151.14;100.00;62537.16;5092704;28;19921;-84
2023/03/13 03:08:33;;;;;;;;;;;5.20;82.30;;;-151.14;100.00;62537.16;5092564;28;19920;-84
2023/03/13 03:11:01;;;;;;;;;;;5.20;82.40;;;-151.14;100.00;62537.16;5092509;28;19920;-84
2023/03/13 03:13:29;;;;;;;;;;;5.20;82.20;;;-151.14;100.00;62537.16;5092207;28;19920;-84
2023/03/13 03:15:59;;;;;;;;;;;5.20;82.30;;;-151.14;100.00;62537.16;5075771;28;19920;-84
2023/03/13 03:18:27;;;;;;;;;;;5.20;82.20;;;-151.14;100.00;62537.16;5072678;28;19932;-83
2023/03/13 03:20:55;;;;;;;;;;;5.20;82.30;;;-151.14;100.00;62537.16;5071417;28;19991;-84
2023/03/13 03:23:23;;;;;;;;;;;5.20;82.20;;;-151.14;100.00;62537.16;5054682;28;19926;-84
2023/03/13 03:25:51;;;;;;;;;;;5.10;82.40;;;-151.14;100.00;62537.16;5054953;28;20212;-84
2023/03/13 03:28:19;;;;;;;;;;;5.20;82.30;;;-151.14;100.00;62537.16;5072471;28;19920;-84
2023/03/13 03:30:47;;;;;;;;;;;5.20;82.40;;;-151.14;100.00;62537.16;5089053;28;20219;-84
2023/03/13 03:33:16;;;;;;;;;;;5.20;82.30;;;-151.14;100.00;62537.16;5071868;28;19921;-84
2023/03/13 03:35:45;;;;;;;;;;;5.20;82.30;;;-151.14;100.00;62537.16;5072170;28;20137;-84
2023/03/13 03:38:14;;;;;;;;;;;5.20;82.30;;;-151.14;100.00;62537.16;5072261;28;19921;-84
2023/03/13 03:40:42;;;;;;;;;;;5.10;82.40;;;-151.14;100.00;62537.16;5071890;28;20208;-84
2023/03/13 03:43:10;;;;;;;;;;;5.10;82.50;;;-151.14;100.00;62537.16;5054859;28;19921;-84
2023/03/13 03:45:38;;;;;;;;;;;5.10;82.50;;;-151.14;100.00;62537.16;5055342;28;19927;-84
2023/03/13 03:48:06;;;;;;;;;;;5.10;82.50;;;18.09;100.00;62537.16;5055394;28;19920;-84
2023/03/13 03:50:35;;;;;;;;;;;5.10;82.40;;;-151.14;100.00;62537.16;5071838;28;19943;-84
2023/03/13 03:53:03;;;;;;;;;;;5.10;82.40;;;-151.14;100.00;62537.16;5054639;28;19921;-83
2023/03/13 03:55:32;;;;;;;;;;;5.10;82.50;;;-151.14;100.00;62537.16;5070454;28;19926;-84
2023/03/13 03:58:00;;;;;;;;;;;5.10;82.70;;;-151.14;100.00;62537.16;5091924;28;19920;-84
2023/03/13 04:00:47;;;;;;;;;;;5.10;82.70;;;-151.14;100.00;62537.16;5091943;28;19927;-84
2023/03/13 04:03:15;;;;;;;;;;;5.10;82.60;;;-151.14;100.00;62537.16;5073477;28;20071;-84
2023/03/13 04:05:46;;;;;;;;;;;5.10;82.70;;;-151.14;100.00;62537.16;5108821;28;19920;-84
2023/03/13 04:08:14;;;;;;;;;;;5.10;82.70;;;-151.14;100.00;62537.16;5075188;28;19920;-84
2023/03/13 04:10:42;;;;;;;;;;;5.10;82.60;;;-151.14;100.00;62537.16;5074861;28;19926;-85
2023/03/13 04:13:10;;;;;;;;;;;5.00;82.50;;;-151.14;100.00;62537.16;5108338;28;19927;-84
2023/03/13 04:15:38;;;;;;;;;;;5.00;82.40;;;-151.14;100.00;62537.16;5061474;28;19920;-84
2023/03/13 04:18:07;;;;;;;;;;;5.00;82.50;;;-151.14;100.00;62537.16;5088448;28;20089;-84
2023/03/13 04:20:35;;;;;;;;;;;5.10;82.60;;;-151.14;100.00;62537.16;5054760;28;20124;-83
2023/03/13 04:23:05;;;;;;;;;;;5.10;82.50;;;-151.14;100.00;62537.16;5070919;28;19926;-84
2023/03/13 04:25:33;;;;;;;;;;;5.00;82.40;;;18.08;100.00;62537.16;5054805;28;19926;-84
2023/03/13 04:28:02;;;;;;;;;;;5.10;82.50;;;-151.14;100.00;62537.16;5054573;28;19921;-84
2023/03/13 04:30:37;;;;;;;;;;;5.10;82.50;;;-151.14;100.00;62537.16;5054240;28;19925;-85
2023/03/13 04:33:11;;;;;;;;;;;5.10;82.60;;;-151.14;100.00;62537.16;5070589;28;19920;-84
2023/03/13 04:36:07;;;;;;;;;;;5.00;82.30;;;-151.14;100.00;62537.16;5102413;28;19920;-84
2023/03/13 04:39:09;;;;;;;;;;;5.00;82.30;;;-151.14;100.00;62537.16;5075324;28;19920;-84
2023/03/13 04:42:00;;;;;;;;;;;5.00;82.10;;;3.71;100.00;62537.16;5060510;28;19927;-85
2023/03/13 04:44:48;;;;;;;;;;;5.00;82.30;;;-151.14;100.00;62537.16;5053796;28;20237;-84
2023/03/13 04:47:34;;;;;;;;;;;5.00;82.40;;;-151.14;100.00;62537.16;5070979;28;20119;-84
2023/03/13 04:50:10;;;;;;;;;;;5.00;82.30;;;-151.14;100.00;62537.16;5054327;28;19927;-84
2023/03/13 04:52:56;;;;;;;;;;;5.00;82.40;;;-151.14;100.00;62537.16;5053787;28;19935;-84
2023/03/13 04:55:54;;;;;;;;;;;5.10;82.20;;;-151.14;100.00;62537.16;5059249;28;19920;-84
2023/03/13 04:58:34;;;;;;;;;;;5.30;81.70;;;-151.14;100.00;62537.16;5071991;28;19920;-84
2023/03/13 05:01:17;;;;;;;;;;;5.60;80.70;;;-151.14;100.00;62537.16;5054201;28;19920;-84
2023/03/13 05:04:11;;;;;;;;;;;6.00;79.60;;;-151.14;100.00;62537.16;5047998;28;19975;-84
2023/03/13 05:06:54;;;;;;;;;;;6.30;78.40;;;-151.14;100.00;62537.16;5054079;28;19920;-84
2023/03/13 05:09:40;;;;;;;;;;;6.70;77.20;;;-151.14;100.00;62537.16;5070582;28;19934;-84
2023/03/13 05:12:35;;;;;;;;;;;7.10;75.50;;;-151.14;100.00;62537.16;5070304;28;19927;-84
2023/03/13 05:15:23;;;;;;;;;;;7.50;73.70;;;-151.14;100.00;62537.16;5021083;28;19921;-84
2023/03/13 05:18:13;;;;;;;;;;;7.70;72.10;;;-151.14;100.00;62537.16;5071614;28;19920;-84
2023/03/13 05:21:06;;;;;;;;;;;7.90;70.70;;;-151.14;100.00;62537.16;5043525;28;19927;-84
2023/03/13 05:23:55;;;;;;;;;;;7.90;69.80;;;-151.14;100.00;62537.16;5086206;28;19920;-84
2023/03/13 05:26:39;;;;;;;;;;;7.80;69.70;;;-151.14;100.00;62537.16;5070587;28;19921;-84
2023/03/13 05:29:25;;;;;;;;;;;7.70;69.70;;;-151.14;100.00;62537.16;5053809;28;19920;-84
2023/03/13 05:32:16;;;;;;;;;;;7.60;70.50;;;-151.14;100.00;62537.16;5059384;28;19920;-84
2023/03/13 05:35:01;;;;;;;;;;;7.50;70.80;;;-151.14;100.00;62537.16;5070227;28;19920;-84
2023/03/13 05:37:47;;;;;;;;;;;7.60;70.70;;;-151.14;100.00;62537.16;5070255;28;19931;-84
2023/03/13 05:40:47;;;;;;;;;;;7.80;70.00;;;-151.14;100.00;62537.16;5029465;28;20216;-84
2023/03/13 05:43:38;;;;;;;;;;;8.00;69.40;;;-151.14;100.00;62537.16;5072947;28;19920;-84
2023/03/13 05:46:13;;;;;;;;;;;8.20;68.80;;;-151.14;100.00;62537.16;5084765;28;19920;-85
2023/03/13 05:48:54;;;;;;;;;;;8.50;68.30;;;-151.14;100.00;62537.16;5053532;28;19927;-84
2023/03/13 05:51:50;;;;;;;;;;;8.80;67.10;;;-151.14;100.00;62537.16;5070075;28;19927;-84
2023/03/13 05:54:36;;;;;;;;;;;9.20;66.00;;;-151.14;100.00;62537.16;5070642;28;19927;-84
2023/03/13 05:57:19;;;;;;;;;;;9.60;64.00;;;-151.14;100.00;62537.16;5071217;28;19934;-84
2023/03/13 06:00:14;;;;;;;;;;;9.80;62.60;;;-151.14;100.00;62537.16;5070154;28;19921;-84
2023/03/13 06:02:50;;;;;;;;;;;10.00;62.00;;;-151.14;100.00;62537.16;5052711;28;19929;-84
2023/03/13 06:05:25;;;;;;;;;;;10.10;61.40;;;-151.14;100.00;62537.16;5053280;28;19920;-84
2023/03/13 06:07:53;;;;;;;;;;;10.00;60.60;;;-151.14;100.00;62537.16;5053504;28;19927;-84
2023/03/13 06:10:21;;;;;;;;;;;9.80;62.00;;;7.36;100.00;62537.16;5069989;28;19921;-84
2023/03/13 06:12:53;;;;;;;;;;;9.40;62.90;;;-151.14;100.00;62537.16;5086174;28;19929;-84
2023/03/13 06:15:21;;;;;;;;;;;9.00;64.50;;;-151.14;100.00;62537.16;5069946;28;19920;-84
2023/03/13 06:17:59;;;;;;;;;;;8.70;64.70;;;-151.14;100.00;62537.16;5053034;28;19927;-84
2023/03/13 06:20:27;;;;;;;;;;;8.30;65.80;;;-151.14;100.00;62537.16;5069919;28;19920;-84
2023/03/13 06:22:55;;;;;;;;;;;8.00;67.70;;;-151.14;100.00;62537.16;5069209;28;19920;-84
2023/03/13 06:25:24;;;;;;;;;;;7.70;68.60;;;-151.14;100.00;62537.16;5069960;28;19921;-84
2023/03/13 06:27:52;;;;;;;;;;;7.50;70.50;;;-151.14;100.00;62537.16;5073159;28;20253;-84
2023/03/13 06:30:20;;;;;;;;;;;7.40;71.40;;;-151.14;100.00;62537.16;5056611;28;19920;-84
2023/03/13 06:32:49;;;;;;;;;;;7.20;71.80;;;-151.14;100.00;62537.16;5072593;28;19927;-84
2023/03/13 06:35:18;;;;;;;;;;;7.10;72.20;;;-151.14;100.00;62537.16;5073091;28;19936;-83
2023/03/13 06:37:46;;;;;;;;;;;7.00;72.10;;;-151.14;100.00;62537.16;5073194;28;19927;-84
2023/03/13 06:40:14;;;;;;;;;;;6.90;72.80;;;-151.14;100.00;62537.16;5073174;28;19921;-84
2023/03/13 06:42:42;;;;;;;;;;;6.80;73.40;;;-151.14;100.00;62537.16;5072569;28;19924;-84
2023/03/13 06:45:10;;;;;;;;;;;6.80;74.70;;;-151.14;100.00;62537.16;5073005;28;19920;-84
2023/03/13 06:47:38;;;;;;;;;;;6.80;75.00;;;-151.14;100.00;62537.16;5056702;28;19920;-84
2023/03/13 06:50:07;;;;;;;;;;;6.70;74.30;;;-151.14;100.00;62537.16;5074128;28;19920;-84
2023/03/13 06:52:37;;;;;;;;;;;6.70;74.30;;;-151.14;100.00;62537.16;5056036;28;19927;-84
2023/03/13 06:55:07;;;;;;;;;;;6.60;75.30;;;-151.14;100.00;62537.16;5073776;28;19920;-84
2023/03/13 06:57:35;;;;;;;;;;;6.60;75.70;;;-151.14;100.00;62537.16;5073169;28;20215;-84
2023/03/13 07:00:04;;;;;;;;;;;6.60;75.90;;;-151.14;100.00;62537.16;5072698;28;19926;-84
2023/03/13 07:02:32;;;;;;;;;;;6.60;76.10;;;-151.14;100.00;62537.16;5055905;28;19927;-84
2023/03/13 07:05:04;;;;;;;;;;;6.60;76.20;;;-151.14;100.00;62537.16;5055639;28;20305;-84
2023/03/13 07:07:32;;;;;;;;;;;6.60;76.30;;;-151.14;100.00;62537.16;5072692;28;19927;-84
2023/03/13 07:10:02;;;;;;;;;;;6.60;76.60;;;-151.14;100.00;62537.16;5072523;28;19920;-84
2023/03/13 07:12:30;;;;;;;;;;;6.60;76.70;;;-151.14;100.00;62537.16;5091740;23;19943;-83
2023/03/13 07:14:58;;;;;;;;;;;6.60;76.80;;;-151.14;100.00;62537.16;5035646;28;19921;-82
2023/03/13 07:17:26;;;;;;;;;;;6.60;77.00;;;-151.14;100.00;62537.16;5052576;28;19921;-82
2023/03/13 07:19:54;;;;;;;;;;;6.60;77.10;;;-151.14;100.00;62537.16;5052316;28;19921;-82
2023/03/13 07:22:25;;;;;;;;;;;6.60;77.30;;;-151.14;100.00;62537.16;5048963;28;19921;-82
2023/03/13 07:24:53;;;;;;;;;;;6.70;77.40;;;-151.14;100.00;62537.16;5031792;28;20234;-82
2023/03/13 07:27:22;;;;;;;;;;;6.70;77.50;;;-151.14;100.00;62537.16;5032654;28;19921;-82
2023/03/13 07:29:55;;;;;;;;;;;6.70;77.50;;;-151.14;100.00;62537.16;5032276;28;19921;-81
2023/03/13 07:32:23;;;;;;;;;;;6.70;77.40;;;-151.14;100.00;62537.16;5032292;28;19927;-82
2023/03/13 07:34:51;;;;;;;;;;;6.70;77.40;;;-151.14;100.00;62537.16;5031621;28;19922;-82
2023/03/13 07:37:19;;;;;;;;;;;6.80;77.40;;;-151.14;100.00;62537.16;5015980;28;19921;-82
2023/03/13 07:39:47;;;;;;;;;;;6.70;77.50;;;-151.14;100.00;62537.16;5032174;28;19927;-82
2023/03/13 07:42:15;;;;;;;;;;;6.70;77.40;;;-151.14;100.00;62537.16;5033385;28;19927;-81
2023/03/13 07:44:45;;;;;;;;;;;6.70;77.50;;;-151.14;100.00;62537.16;5031545;28;19935;-82
2023/03/13 07:47:12;;;;;;;;;;;6.70;77.50;;;-151.14;100.00;62537.16;5032220;28;20107;-82
2023/03/13 07:49:42;;;;;;;;;;;6.70;77.40;;;-151.14;100.00;62537.16;5015658;28;20212;-83
2023/03/13 07:52:10;;;;;;;;;;;6.70;77.50;;;-151.14;100.00;62537.16;5065258;28;20122;-82
2023/03/13 07:54:38;;;;;;;;;;;6.70;77.60;;;-151.14;100.00;62537.16;5031263;28;19921;-83
2023/03/13 07:57:06;;;;;;;;;;;6.70;77.50;;;-151.14;100.00;62537.16;5015583;28;19980;-82
2023/03/13 07:59:34;;;;;;;;;;;6.70;77.60;;;-151.14;100.00;62537.16;5031999;28;19921;-82
2023/03/13 08:02:04;;;;;;;;;;;6.70;77.50;;;-151.14;100.00;62537.16;5015468;28;20230;-82
2023/03/13 08:04:32;;;;;;;;;;;6.70;77.40;;;-151.14;100.00;62537.16;5032469;28;19921;-81
2023/03/13 08:07:03;;;;;;;;;;;6.80;77.50;;;-151.14;100.00;62537.16;5032927;28;19921;-81
2023/03/13 08:09:36;;;;;;;;;;;6.80;77.30;;;-151.14;100.00;62537.16;5015501;28;19927;-83
2023/03/13 08:12:05;;;;;;;;;;;6.80;77.30;;;-151.14;100.00;62537.16;5048310;28;19935;-81
2023/03/13 08:14:33;;;;;;;;;;;6.80;77.30;;;-151.14;100.00;62537.16;5014669;28;20098;-81
2023/03/13 08:17:04;;;;;;;;;;;6.80;77.20;;;-151.14;100.00;62537.16;5015301;28;20077;-81
2023/03/13 08:19:32;;;;;;;;;;;6.80;77.20;;;-151.14;100.00;62537.16;5064841;28;19921;-82
2023/03/13 08:22:00;;;;;;;;;;;6.80;77.20;;;-151.14;100.00;62537.16;5015220;28;19978;-82
2023/03/13 08:24:29;;;;;;;;;;;6.90;77.30;;;-151.14;100.00;62537.16;5014670;28;19927;-82
2023/03/13 08:26:59;;;;;;;;;;;6.80;77.20;;;-151.14;100.00;62537.16;5031406;28;19921;-82
2023/03/13 08:29:27;;;;;;;;;;;6.80;77.20;;;-151.14;100.00;62537.16;5031513;28;19930;-82
2023/03/13 08:31:55;;;;;;;;;;;6.80;77.30;;;-151.14;100.00;62537.16;5014924;28;19928;-82
2023/03/13 08:34:25;;;;;;;;;;;6.80;77.40;;;-151.14;100.00;62537.16;5036351;28;19984;-81
2023/03/13 08:36:52;;;;;;;;;;;6.80;77.40;;;-151.14;100.00;62537.16;5031464;28;19927;-82
2023/03/13 08:39:31;;;;;;;;;;;6.80;77.50;;;-151.14;100.00;62537.16;5014888;28;20123;-81
2023/03/13 08:42:04;;;;;;;;;;;6.80;77.60;;;-151.14;100.00;62537.16;5064491;28;19922;-81
2023/03/13 08:44:32;;;;;;;;;;;6.80;77.60;;;-151.14;100.00;62537.16;5019708;28;20224;-82
2023/03/13 08:47:01;;;;;;;;;;;6.80;77.60;;;-151.14;100.00;62537.16;5015075;28;19921;-81
2023/03/13 08:49:30;;;;;;;;;;;6.80;77.70;;;-151.14;100.00;62537.16;5014269;28;19927;-81
2023/03/13 08:51:58;;;;;;;;;;;6.80;77.80;;;-151.14;100.00;62537.16;5014900;28;19921;-82
2023/03/13 08:54:26;;;;;;;;;;;6.80;77.70;;;-151.14;100.00;62537.16;5030677;28;19921;-82
2023/03/13 08:56:54;;;;;;;;;;;6.80;77.70;;;-151.14;100.00;62537.16;5047776;28;20160;-82
2023/03/13 08:59:22;;;;;;;;;;;6.80;77.80;;;-151.14;100.00;62537.16;5031304;28;19921;-82
2023/03/13 09:01:50;;;;;;;;;;;6.80;77.70;;;-151.14;100.00;62537.16;5014797;28;19943;-81
2023/03/13 09:04:18;;;;;;;;;;;6.70;77.80;;;-151.14;100.00;62537.16;5030781;28;20238;-81
2023/03/13 09:06:47;;;;;;;;;;;6.70;77.80;;;-151.14;100.00;62537.16;5031177;28;19921;-82
2023/03/13 09:09:15;;;;;;;;;;;6.80;77.90;;;-151.14;100.00;62537.16;5064612;28;19922;-82
2023/03/13 09:11:55;;;;;;;;;;;6.70;77.90;;;-151.14;100.00;62537.16;5030927;28;20205;-82
2023/03/13 09:14:29;;;;;;;;;;;6.70;77.90;;;-151.14;100.00;62537.16;5047206;28;20125;-82
2023/03/13 09:17:08;;;;;;;;;;;6.70;77.90;;;-151.14;100.00;62537.16;5030856;28;19927;-82
2023/03/13 09:19:36;;;;;;;;;;;6.70;78.00;;;-151.14;100.00;62537.16;5047507;28;19921;-82
2023/03/13 09:22:05;;;;;;;;;;;6.70;78.10;;;-151.14;100.00;62537.16;5030579;28;19927;-82
2023/03/13 09:24:33;;;;;;;;;;;6.70;78.20;;;-151.14;100.00;62537.16;5030383;28;19921;-82
2023/03/13 09:27:01;;;;;;;;;;;6.70;78.30;;;-151.14;100.00;62537.16;5030643;28;19921;-82
2023/03/13 09:29:29;;;;;;;;;;;6.70;78.30;;;-151.14;100.00;62537.16;5032007;28;19921;-82
2023/03/13 09:31:57;;;;;;;;;;;6.60;78.30;;;-151.14;100.00;62537.16;5031917;28;19921;-82
2023/03/13 09:34:25;;;;;;;;;;;6.60;78.30;;;-151.14;100.00;62537.16;5013664;28;19921;-82
2023/03/13 09:36:53;;;;;;;;;;;6.70;78.40;;;-151.14;100.00;62537.16;5030630;28;19921;-82
2023/03/13 09:39:23;;;;;;;;;;;6.70;78.30;;;-151.14;100.00;62537.16;5030647;28;20135;-83
2023/03/13 09:41:54;;;;;;;;;;;6.60;78.20;;;-151.14;100.00;62537.16;5063906;28;19927;-82
2023/03/13 09:44:24;;;;;;;;;;;6.60;78.20;;;-151.14;100.00;62537.16;5030058;28;19921;-82
2023/03/13 09:46:59;;;;;;;;;;;6.60;78.40;;;-151.14;100.00;62537.16;5046928;28;19921;-82
2023/03/13 09:49:32;;;;;;;;;;;6.60;78.40;;;-151.14;100.00;62537.16;5030556;28;19929;-82
2023/03/13 09:52:10;;;;;;;;;;;6.60;78.60;;;-151.14;100.00;62537.16;5013682;28;19921;-82
2023/03/13 09:54:41;;;;;;;;;;;6.60;78.50;;;-151.14;100.00;62537.16;5013319;28;19935;-82
2023/03/13 09:57:14;;;;;;;;;;;6.60;78.50;;;-151.14;100.00;62537.16;5013737;28;19921;-82
2023/03/13 09:59:47;;;;;;;;;;;6.50;78.50;;;-151.14;100.00;62537.16;5047587;28;19925;-82
2023/03/13 10:02:23;;;;;;;;;;;6.50;78.50;;;-151.14;100.00;62537.16;5035423;28;20234;-82
2023/03/13 10:04:58;;;;;;;;;;;6.60;78.50;;;-151.14;100.00;62537.16;5034595;28;19921;-82
2023/03/13 10:07:26;;;;;;;;;;;6.50;78.50;;;-151.14;100.00;62537.16;5051516;28;19921;-82
2023/03/13 10:09:55;;;;;;;;;;;6.50;78.40;;;-151.14;100.00;62537.16;5035388;28;20103;-82
2023/03/13 10:12:25;;;;;;;;;;;6.50;78.50;;;-151.14;100.00;62537.16;5035098;28;19927;-82
2023/03/13 10:14:58;;;;;;;;;;;6.50;78.60;;;-151.14;100.00;62537.16;5017885;28;20209;-82
2023/03/13 10:17:31;;;;;;;;;;;6.40;78.50;;;-151.14;100.00;62537.16;5034829;28;19940;-83
2023/03/13 10:20:05;;;;;;;;;;;6.40;78.70;;;-151.14;100.00;62537.16;5033599;28;19957;-82
2023/03/13 10:22:33;;;;;;;;;;;6.40;78.70;;;-151.14;100.00;62537.16;5014018;28;19944;-81
2023/03/13 10:25:03;;;;;;;;;;;6.40;78.80;;;-151.14;100.00;62537.16;5013758;28;19928;-82
2023/03/13 10:27:31;;;;;;;;;;;6.40;78.90;;;-151.14;100.00;62537.16;5013643;28;19921;-82
2023/03/13 10:29:59;;;;;;;;;;;6.40;79.00;;;-151.14;100.00;62537.16;4997410;28;19922;-82
2023/03/13 10:32:27;;;;;;;;;;;6.40;79.10;;;-151.14;100.00;62537.16;5031671;28;19922;-82
2023/03/13 10:34:57;;;;;;;;;;;6.40;79.10;;;-151.14;100.00;62537.16;5032976;28;19927;-81
2023/03/13 10:37:25;;;;;;;;;;;6.40;79.10;;;-151.14;100.00;62537.16;5033151;28;20271;-82
2023/03/13 10:39:53;;;;;;;;;;;6.40;79.20;;;-151.14;100.00;62537.16;5034419;28;19921;-82
2023/03/13 10:42:27;;;;;;;;;;;6.40;79.20;;;-151.14;100.00;62537.16;5033111;28;19929;-81
2023/03/13 10:45:01;;;;;;;;;;;6.40;79.20;;;-151.14;100.00;62537.16;5033862;28;20220;-82
2023/03/13 10:47:33;;;;;;;;;;;6.30;79.20;;;-151.14;100.00;62537.16;5033911;28;19921;-82
2023/03/13 10:50:02;;;;;;;;;;;6.30;79.10;;;-151.14;100.00;62537.16;5018912;28;19921;-82
2023/03/13 10:52:44;;;;;;;;;;;6.30;79.20;;;-151.14;100.00;62537.16;5035651;28;19921;-82
2023/03/13 10:55:17;;;;;;;;;;;6.30;79.20;;;-151.14;100.00;62537.16;5019208;28;19922;-82
2023/03/13 10:57:57;;;;;;;;;;;6.30;79.30;;;-151.14;100.00;62537.16;5036032;28;20103;-82
2023/03/13 11:00:34;;;;;;;;;;;6.30;79.30;;;-151.14;100.00;62537.16;5035580;28;19921;-82
2023/03/13 11:03:02;;;;;;;;;;;6.30;79.40;;;-151.14;100.00;62537.16;5034910;28;20004;-82
2023/03/13 11:05:33;;;;;;;;;;;6.30;79.40;;;-151.14;100.00;62537.16;5035216;28;19921;-82
2023/03/13 11:08:12;;;;;;;;;;;6.30;79.40;;;-151.14;100.00;62537.16;5051172;28;19921;-82
2023/03/13 11:10:40;;;;;;;;;;;6.20;79.40;;;-151.14;100.00;62537.16;5032618;28;19921;-82
2023/03/13 11:13:11;;;;;;;;;;;6.20;79.40;;;-151.14;100.00;62537.16;5031898;28;19921;-82
2023/03/13 11:15:55;;;;;;;;;;;6.30;79.60;;;-151.14;100.00;62537.16;5033108;28;19921;-82
2023/03/13 11:18:57;;;;;;;;;;;6.20;79.60;;;-151.14;100.00;62537.16;5046031;28;19928;-82
2023/03/13 11:21:30;;;;;;;;;;;6.20;79.70;;;-151.14;100.00;62537.16;5012548;28;19922;-82
2023/03/13 11:24:01;;;;;;;;;;;6.20;79.80;;;-151.14;100.00;62537.16;4996229;28;20116;-82
2023/03/13 11:26:33;;;;;;;;;;;6.20;79.80;;;-151.14;100.00;62537.16;4996535;28;19928;-82
2023/03/13 11:29:09;;;;;;;;;;;6.20;79.80;;;-151.14;100.00;62537.16;5012805;28;19921;-82
2023/03/13 11:31:39;;;;;;;;;;;6.20;79.80;;;-151.14;100.00;62537.16;5015979;28;19921;-82
2023/03/13 11:34:11;;;;;;;;;;;6.20;79.90;;;-151.14;100.00;62537.16;5031894;28;19927;-82